Map

Track Data

SID SEASON NUMBER BASIN SUBBASIN NAME ISO_TIME NATURE LAT LON WMO_WIND WMO_PRES WMO_AGENCY TRACK_TYPE DIST2LAND LANDFALL IFLAG USA_AGENCY USA_ATCF_ID USA_LAT USA_LON USA_RECORD USA_STATUS USA_WIND USA_PRES USA_SSHS USA_R34_NE USA_R34_SE USA_R34_SW USA_R34_NW USA_R50_NE USA_R50_SE USA_R50_SW USA_R50_NW USA_R64_NE USA_R64_SE USA_R64_SW USA_R64_NW USA_POCI USA_ROCI USA_RMW USA_EYE TOKYO_LAT TOKYO_LON TOKYO_GRADE TOKYO_WIND TOKYO_PRES TOKYO_R50_DIR TOKYO_R50_LONG TOKYO_R50_SHORT TOKYO_R30_DIR TOKYO_R30_LONG TOKYO_R30_SHORT TOKYO_LAND CMA_LAT CMA_LON CMA_CAT CMA_WIND CMA_PRES HKO_LAT HKO_LON HKO_CAT HKO_WIND HKO_PRES NEWDELHI_LAT NEWDELHI_LON NEWDELHI_GRADE NEWDELHI_WIND NEWDELHI_PRES NEWDELHI_CI NEWDELHI_DP NEWDELHI_POCI REUNION_LAT REUNION_LON REUNION_TYPE REUNION_WIND REUNION_PRES REUNION_TNUM REUNION_CI REUNION_RMW REUNION_R34_NE REUNION_R34_SE REUNION_R34_SW REUNION_R34_NW REUNION_R50_NE REUNION_R50_SE REUNION_R50_SW REUNION_R50_NW REUNION_R64_NE REUNION_R64_SE REUNION_R64_SW REUNION_R64_NW BOM_LAT BOM_LON BOM_TYPE BOM_WIND BOM_PRES BOM_TNUM BOM_CI BOM_RMW BOM_R34_NE BOM_R34_SE BOM_R34_SW BOM_R34_NW BOM_R50_NE BOM_R50_SE BOM_R50_SW BOM_R50_NW BOM_R64_NE BOM_R64_SE BOM_R64_SW BOM_R64_NW BOM_ROCI BOM_POCI BOM_EYE BOM_POS_METHOD BOM_PRES_METHOD NADI_LAT NADI_LON NADI_CAT NADI_WIND NADI_PRES WELLINGTON_LAT WELLINGTON_LON WELLINGTON_WIND WELLINGTON_PRES DS824_LAT DS824_LON DS824_STAGE DS824_WIND DS824_PRES TD9636_LAT TD9636_LON TD9636_STAGE TD9636_WIND TD9636_PRES TD9635_LAT TD9635_LON TD9635_WIND TD9635_PRES TD9635_ROCI NEUMANN_LAT NEUMANN_LON NEUMANN_CLASS NEUMANN_WIND NEUMANN_PRES MLC_LAT MLC_LON MLC_CLASS MLC_WIND MLC_PRES USA_GUST BOM_GUST BOM_GUST_PER REUNION_GUST REUNION_GUST_PER USA_SEAHGT USA_SEARAD_NE USA_SEARAD_SE USA_SEARAD_SW USA_SEARAD_NW STORM_SPEED STORM_DIR
1937314N13132 1937 60 WP MM NOT_NAMED 1937-11-10 10:00:00 NR 12.6000 131.800 main 677 649 __________O___ -1 12.6000 131.800 7 8 292
1937314N13132 1937 60 WP MM NOT_NAMED 1937-11-10 12:00:00 NR 12.7060 131.533 main 649 613 __________P___ -1 12.7060 131.533 7 9 292
1937314N13132 1937 60 WP MM NOT_NAMED 1937-11-10 15:00:00 NR 12.8689 131.119 main 613 571 __________P___ -1 12.8689 131.119 7 9 292
1937314N13132 1937 60 WP MM NOT_NAMED 1937-11-10 18:00:00 NR 13.0420 130.674 main 571 522 __________P___ -1 13.0420 130.674 7 10 292
1937314N13132 1937 60 WP MM NOT_NAMED 1937-11-10 21:00:00 NR 13.2319 130.179 main 522 503 __________P___ -1 13.2319 130.179 7 11 291
1937314N13132 1937 60 WP MM NOT_NAMED 1937-11-10 22:00:00 NR 13.3000 130.000 main 503 464 __________O___ -1 13.3000 130.000 7 12 291
1937314N13132 1937 60 WP MM NOT_NAMED 1937-11-11 00:00:00 NR 13.4438 129.618 main 464 415 __________P___ -1 13.4438 129.618 7 13 291
1937314N13132 1937 60 WP MM NOT_NAMED 1937-11-11 03:00:00 NR 13.6723 128.994 main 415 358 __________P___ -1 13.6723 128.994 7 13 290
1937314N13132 1937 60 WP MM NOT_NAMED 1937-11-11 06:00:00 NR 13.9048 128.326 main 358 311 __________P___ -1 13.9048 128.326 7 14 289
1937314N13132 1937 60 WP MM NOT_NAMED 1937-11-11 09:00:00 NR 14.1291 127.633 main 311 303 __________P___ -1 14.1291 127.633 7 14 288
1937314N13132 1937 60 WP MM NOT_NAMED 1937-11-11 10:00:00 NR 14.2000 127.400 main 303 280 __________O___ -1 14.2000 127.400 3 14 287
1937314N13132 1937 60 WP MM NOT_NAMED 1937-11-11 12:00:00 NR 14.3328 126.955 main 280 215 __________P___ -1 14.3328 126.955 3 14 286
1937314N13132 1937 60 WP MM NOT_NAMED 1937-11-11 15:00:00 NR 14.5198 126.275 main 215 157 __________P___ -1 14.5198 126.275 3 14 285
1937314N13132 1937 60 WP MM NOT_NAMED 1937-11-11 18:00:00 NR 14.6923 125.575 main 157 110 __________P___ -1 14.6923 125.575 3 14 283
1937314N13132 1937 60 WP MM NOT_NAMED 1937-11-11 21:00:00 NR 14.8504 124.849 main 114 105 __________P___ -1 14.8504 124.849 3 15 282
1937314N13132 1937 60 WP MM NOT_NAMED 1937-11-11 22:00:00 NR 14.9000 124.600 main 105 101 __________O___ -1 14.9000 124.600 4 15 282
1937314N13132 1937 60 WP MM NOT_NAMED 1937-11-12 00:00:00 NR 15.0025 124.084 main 111 109 __________P___ -1 15.0025 124.084 4 16 281
1937314N13132 1937 60 WP MM NOT_NAMED 1937-11-12 03:00:00 NR 15.1439 123.285 main 109 94 __________P___ -1 15.1439 123.285 4 16 280
1937314N13132 1937 60 WP MM NOT_NAMED 1937-11-12 06:00:00 NR 15.2677 122.473 main 94 24 __________P___ -1 15.2677 122.473 4 16 278
1937314N13132 1937 60 WP MM NOT_NAMED 1937-11-12 09:00:00 NR 15.3707 121.665 main 24 0 __________P___ -1 15.3707 121.665 4 16 277
1937314N13132 1937 60 WP MM NOT_NAMED 1937-11-12 10:00:00 NR 15.4000 121.400 main 0 0 __________O___ -1 15.4000 121.400 4 15 278
1937314N13132 1937 60 WP MM NOT_NAMED 1937-11-12 12:00:00 NR 15.4677 120.902 main 0 0 __________P___ -1 15.4677 120.902 4 14 277
1937314N13132 1937 60 WP MM NOT_NAMED 1937-11-12 15:00:00 NR 15.5515 120.168 main 0 0 __________P___ -1 15.5515 120.168 4 14 275
1937314N13132 1937 60 WP MM NOT_NAMED 1937-11-12 18:00:00 NR 15.6030 119.429 main 54 54 __________P___ -1 15.6030 119.429 4 15 272
1937314N13132 1937 60 WP MM NOT_NAMED 1937-11-12 21:00:00 NR 15.6098 118.665 main 116 125 __________P___ -1 15.6098 118.665 4 15 270
1937314N13132 1937 60 WP MM NOT_NAMED 1937-11-12 22:00:00 NR 15.6000 118.400 main 146 146 __________O___ -1 15.6000 118.400 4 16 268
1937314N13132 1937 60 WP MM NOT_NAMED 1937-11-13 00:00:00 NR 15.5854 117.838 main 208 208 __________P___ -1 15.5854 117.838 4 17 267
1937314N13132 1937 60 WP MM NOT_NAMED 1937-11-13 03:00:00 NR 15.5201 116.962 main 294 304 __________P___ -1 15.5201 116.962 4 17 264
1937314N13132 1937 60 WP MM NOT_NAMED 1937-11-13 06:00:00 NR 15.3915 116.071 main 391 401 __________P___ -1 15.3915 116.071 4 17 259
1937314N13132 1937 60 WP MM NOT_NAMED 1937-11-13 09:00:00 NR 15.1871 115.188 main 490 500 __________P___ -1 15.1871 115.188 4 18 256
1937314N13132 1937 60 WP MM NOT_NAMED 1937-11-13 10:00:00 NR 15.1000 114.900 main 524 524 __________O___ -1 15.1000 114.900 4 17 251
1937314N13132 1937 60 WP MM NOT_NAMED 1937-11-13 12:00:00 NR 14.8965 114.337 main 550 457 __________P___ -1 14.8965 114.337 4 17 247
1937314N13132 1937 60 WP MM NOT_NAMED 1937-11-13 15:00:00 NR 14.5294 113.521 main 457 367 __________P___ -1 14.5294 113.521 4 17 243
1937314N13132 1937 60 WP MM NOT_NAMED 1937-11-13 18:00:00 NR 14.1079 112.730 main 367 285 __________P___ -1 14.1079 112.730 4 18 240
1937314N13132 1937 60 WP MM NOT_NAMED 1937-11-13 21:00:00 NR 13.6544 111.956 main 285 247 __________P___ -1 13.6544 111.956 4 18 239
1937314N13132 1937 60 WP MM NOT_NAMED 1937-11-13 22:00:00 NR 13.5000 111.700 main 247 __________O___ -1 13.5000 111.700 4 18 238

Digital Typhoon Data and Search

About IBTrACS Database

This database is a web-friendly format of International Best Track Archive for Climate Stewardship (IBTrACS), a global best track data archive curated by NOAA dating back to 1842.

Updated: 2021-10-27